createdAt,value
2023-05-09T00:02:06.860Z,53.70
2023-05-09T00:04:34.085Z,53.40
2023-05-09T00:07:00.901Z,53.50
2023-05-09T00:09:27.446Z,53.30
2023-05-09T00:11:54.011Z,53.40
2023-05-09T00:14:20.607Z,53.30
2023-05-09T00:16:47.351Z,53.90
2023-05-09T00:19:13.958Z,53.30
2023-05-09T00:21:40.787Z,53.00
2023-05-09T00:24:07.347Z,53.00
2023-05-09T00:26:33.919Z,53.00
2023-05-09T00:29:00.474Z,53.10
2023-05-09T00:31:27.818Z,53.00
2023-05-09T00:33:54.599Z,52.80
2023-05-09T00:36:21.285Z,53.50
2023-05-09T00:38:47.842Z,53.00
2023-05-09T00:41:14.471Z,52.80
2023-05-09T00:43:41.087Z,52.80
2023-05-09T00:46:07.757Z,52.70
2023-05-09T00:48:34.662Z,52.70
2023-05-09T00:51:01.555Z,52.50
2023-05-09T00:53:28.149Z,52.60
2023-05-09T00:55:55.829Z,52.70
2023-05-09T00:58:22.543Z,52.60
2023-05-09T01:00:49.197Z,52.60
2023-05-09T01:03:15.896Z,52.60
2023-05-09T01:05:54.668Z,52.40
2023-05-09T01:08:37.794Z,52.40
2023-05-09T01:11:12.860Z,52.50
2023-05-09T01:13:48.757Z,52.90
2023-05-09T01:16:23.841Z,52.50
2023-05-09T01:19:05.539Z,52.20
2023-05-09T01:21:33.375Z,52.10
2023-05-09T01:24:05.975Z,52.20
2023-05-09T01:26:35.547Z,52.50
2023-05-09T01:29:22.764Z,52.70
2023-05-09T01:31:49.905Z,53.30
2023-05-09T01:34:18.054Z,52.90
2023-05-09T01:36:47.010Z,52.50
2023-05-09T01:39:13.933Z,52.50
2023-05-09T01:41:40.815Z,52.10
2023-05-09T01:44:09.665Z,52.10
2023-05-09T01:46:37.267Z,51.90
2023-05-09T01:49:05.227Z,51.80
2023-05-09T01:51:32.578Z,52.00
2023-05-09T01:53:59.637Z,51.80
2023-05-09T01:56:26.530Z,52.00
2023-05-09T01:58:53.813Z,52.10
2023-05-09T02:01:21.048Z,51.90
2023-05-09T02:03:50.646Z,51.10
2023-05-09T02:06:18.194Z,51.50
2023-05-09T02:08:45.015Z,51.10
2023-05-09T02:11:11.614Z,51.30
2023-05-09T02:13:38.413Z,51.20
2023-05-09T02:16:06.320Z,51.10
2023-05-09T02:18:34.128Z,51.30
2023-05-09T02:21:01.278Z,51.10
2023-05-09T02:23:27.876Z,51.30
2023-05-09T02:25:54.666Z,51.30
2023-05-09T02:28:23.390Z,51.90
2023-05-09T02:30:51.012Z,51.30
2023-05-09T02:33:17.925Z,52.30
2023-05-09T02:35:45.416Z,51.50
2023-05-09T02:38:12.565Z,50.90
2023-05-09T02:40:39.255Z,51.50
2023-05-09T02:43:05.855Z,51.10
2023-05-09T02:45:32.537Z,51.00
2023-05-09T02:47:59.202Z,51.00
2023-05-09T02:50:26.103Z,51.10
2023-05-09T02:52:52.691Z,51.20
2023-05-09T02:55:19.277Z,51.10
2023-05-09T02:57:45.955Z,50.80
2023-05-09T03:00:12.825Z,50.90
2023-05-09T03:02:39.481Z,50.90
2023-05-09T03:05:06.371Z,50.90
2023-05-09T03:07:32.927Z,51.80
2023-05-09T03:09:59.553Z,50.80
2023-05-09T03:12:26.459Z,51.60
2023-05-09T03:14:53.067Z,50.70
2023-05-09T03:17:21.397Z,51.10
2023-05-09T03:19:48.515Z,50.60
2023-05-09T03:22:15.350Z,51.30
2023-05-09T03:24:41.932Z,50.90
2023-05-09T03:27:08.545Z,50.90
2023-05-09T03:29:35.179Z,50.90
2023-05-09T03:32:01.758Z,50.90
2023-05-09T03:34:28.310Z,50.90
2023-05-09T03:36:54.886Z,51.50
2023-05-09T03:39:21.445Z,51.90
2023-05-09T03:41:48.822Z,50.80
2023-05-09T03:44:15.919Z,50.70
2023-05-09T03:46:42.576Z,50.60
2023-05-09T03:49:09.209Z,50.50
2023-05-09T03:51:36.598Z,50.90
2023-05-09T03:54:03.210Z,50.90
2023-05-09T03:56:29.780Z,51.10
2023-05-09T03:58:56.452Z,51.20
2023-05-09T04:01:23.031Z,51.10
2023-05-09T04:03:50.349Z,51.40
2023-05-09T04:06:16.971Z,51.10
2023-05-09T04:08:43.581Z,50.70
2023-05-09T04:11:10.358Z,51.10
2023-05-09T04:13:36.927Z,51.10
2023-05-09T04:16:03.764Z,51.20
2023-05-09T04:18:31.291Z,51.20
2023-05-09T04:20:57.898Z,51.20
2023-05-09T04:23:24.766Z,52.00
2023-05-09T04:25:52.048Z,51.40
2023-05-09T04:28:18.624Z,50.60
2023-05-09T04:30:45.787Z,50.70
2023-05-09T04:33:13.110Z,50.90
2023-05-09T04:35:39.814Z,50.80
2023-05-09T04:38:06.453Z,50.60
2023-05-09T04:40:33.658Z,50.60
2023-05-09T04:43:00.294Z,50.40
2023-05-09T04:45:27.728Z,50.10
2023-05-09T04:47:54.337Z,51.30
2023-05-09T04:50:21.011Z,51.20
2023-05-09T04:52:47.643Z,50.60
2023-05-09T04:55:14.524Z,49.90
2023-05-09T04:57:41.242Z,49.80
2023-05-09T05:00:08.234Z,49.90
2023-05-09T05:02:34.900Z,49.60
2023-05-09T05:05:10.964Z,49.90
2023-05-09T05:07:38.975Z,49.70
2023-05-09T05:10:06.414Z,49.80
2023-05-09T05:12:33.059Z,49.70
2023-05-09T05:14:59.603Z,49.20
2023-05-09T05:17:26.288Z,49.70
2023-05-09T05:19:52.880Z,50.10
2023-05-09T05:22:19.435Z,50.20
2023-05-09T05:24:45.972Z,50.10
2023-05-09T05:27:12.569Z,50.10
2023-05-09T05:29:39.157Z,50.20
2023-05-09T05:32:05.752Z,50.10
2023-05-09T05:34:32.311Z,50.10
2023-05-09T05:36:58.834Z,50.20
2023-05-09T05:39:25.415Z,50.20
2023-05-09T05:41:52.809Z,50.20
2023-05-09T05:44:19.391Z,50.30
2023-05-09T05:46:45.972Z,50.00
2023-05-09T05:49:12.695Z,50.50
2023-05-09T05:51:39.272Z,50.10
2023-05-09T05:54:05.946Z,49.60
2023-05-09T05:56:32.761Z,49.70
2023-05-09T05:58:59.321Z,50.10
2023-05-09T06:01:26.355Z,50.00
2023-05-09T06:03:55.748Z,49.70
2023-05-09T06:06:22.634Z,49.30
2023-05-09T06:08:52.152Z,49.00
2023-05-09T06:11:18.921Z,48.50
2023-05-09T06:13:45.671Z,48.60
2023-05-09T06:16:19.588Z,48.70
2023-05-09T06:18:47.321Z,48.60
2023-05-09T06:21:13.958Z,48.20
2023-05-09T06:23:47.233Z,48.30
2023-05-09T06:26:23.961Z,48.30
2023-05-09T06:28:50.539Z,49.20
2023-05-09T06:31:17.138Z,48.80
2023-05-09T06:33:43.762Z,48.90
2023-05-09T06:36:10.684Z,49.70
2023-05-09T06:38:37.254Z,49.40
2023-05-09T06:41:03.881Z,48.90
2023-05-09T06:43:30.509Z,49.30
2023-05-09T06:45:57.120Z,49.40
2023-05-09T06:48:24.067Z,50.00
2023-05-09T06:50:50.835Z,49.50
2023-05-09T06:53:17.405Z,49.10
2023-05-09T06:55:44.012Z,48.60
2023-05-09T06:58:11.266Z,49.10
2023-05-09T07:00:38.343Z,49.20
2023-05-09T07:03:07.372Z,49.50
2023-05-09T07:05:34.110Z,49.10
2023-05-09T07:08:00.875Z,49.10
2023-05-09T07:10:27.765Z,48.70
2023-05-09T07:12:54.490Z,47.60
2023-05-09T07:15:36.838Z,49.00
2023-05-09T07:18:07.922Z,48.70
2023-05-09T07:20:34.528Z,47.90
2023-05-09T07:23:03.447Z,47.70
2023-05-09T07:25:30.250Z,48.20
2023-05-09T07:27:56.878Z,48.30
2023-05-09T07:30:23.887Z,48.70
2023-05-09T07:32:51.347Z,48.70
2023-05-09T07:35:18.419Z,48.70
2023-05-09T07:37:45.023Z,47.30
2023-05-09T07:40:11.933Z,47.10
2023-05-09T07:42:38.583Z,47.30
2023-05-09T07:45:06.230Z,46.50
2023-05-09T07:47:33.375Z,46.10
2023-05-09T07:50:00.515Z,46.40
2023-05-09T07:52:27.079Z,45.80
2023-05-09T07:54:54.747Z,45.80
2023-05-09T07:57:21.450Z,45.50
2023-05-09T07:59:48.019Z,45.40
2023-05-09T08:02:14.730Z,45.80
2023-05-09T08:04:42.330Z,45.40
2023-05-09T08:07:09.975Z,45.70
2023-05-09T08:09:36.637Z,45.40
2023-05-09T08:12:03.391Z,44.70
2023-05-09T08:14:30.704Z,45.80
2023-05-09T08:16:57.335Z,45.30
2023-05-09T08:19:26.112Z,45.30
2023-05-09T08:21:53.294Z,45.30
2023-05-09T08:24:20.452Z,45.10
2023-05-09T08:26:50.044Z,45.20
2023-05-09T08:29:18.853Z,44.70
2023-05-09T08:31:46.460Z,45.10
2023-05-09T08:34:13.182Z,44.70
2023-05-09T08:36:41.287Z,44.50
2023-05-09T08:39:09.911Z,43.90
2023-05-09T08:41:38.050Z,44.10
2023-05-09T08:44:05.858Z,43.50
2023-05-09T08:46:36.733Z,43.40
2023-05-09T08:49:06.499Z,43.40
2023-05-09T08:51:33.521Z,43.30
2023-05-09T08:54:00.443Z,42.70
2023-05-09T08:56:27.673Z,42.50
2023-05-09T08:58:55.426Z,43.40
2023-05-09T09:01:22.717Z,43.00
2023-05-09T09:03:50.517Z,43.40
2023-05-09T09:06:17.462Z,43.70
2023-05-09T09:08:44.568Z,44.80
2023-05-09T09:11:13.763Z,44.90
2023-05-09T09:13:41.159Z,45.00
2023-05-09T09:16:16.076Z,44.40
2023-05-09T09:18:43.672Z,44.10
2023-05-09T09:21:11.698Z,43.60
2023-05-09T09:23:41.316Z,45.30
2023-05-09T09:26:08.078Z,45.20
2023-05-09T09:28:35.540Z,44.40
2023-05-09T09:31:02.493Z,44.40
2023-05-09T09:33:29.480Z,43.80
2023-05-09T09:35:57.682Z,43.60
2023-05-09T09:38:24.794Z,43.80
2023-05-09T09:40:51.419Z,43.80
2023-05-09T09:43:18.145Z,43.50
2023-05-09T09:45:49.720Z,42.90
2023-05-09T09:48:16.429Z,43.00
2023-05-09T09:50:42.978Z,42.30
2023-05-09T09:53:09.555Z,42.60
2023-05-09T09:55:36.271Z,41.20
2023-05-09T09:58:03.268Z,41.70
2023-05-09T10:00:30.266Z,42.50
2023-05-09T10:02:57.790Z,43.30
2023-05-09T10:05:25.890Z,43.20
2023-05-09T10:08:05.041Z,43.20
2023-05-09T10:10:32.828Z,43.10
2023-05-09T10:13:00.488Z,43.70
2023-05-09T10:15:31.553Z,44.30
2023-05-09T10:18:04.516Z,43.60
2023-05-09T10:20:31.929Z,43.50
2023-05-09T10:23:01.574Z,43.10
2023-05-09T10:25:32.623Z,43.70
2023-05-09T10:28:01.374Z,42.60
2023-05-09T10:30:31.489Z,43.00
2023-05-09T10:33:08.238Z,42.80
2023-05-09T10:35:36.915Z,43.00
2023-05-09T10:38:04.059Z,43.00
2023-05-09T10:40:31.548Z,43.50
2023-05-09T10:42:58.984Z,43.70
2023-05-09T10:45:25.724Z,44.30
2023-05-09T10:47:53.266Z,44.20
2023-05-09T10:50:21.220Z,44.10
2023-05-09T10:53:15.260Z,44.00
2023-05-09T10:55:53.574Z,43.50
2023-05-09T10:58:27.285Z,44.10
2023-05-09T11:00:57.128Z,44.10
2023-05-09T11:03:28.325Z,44.20
2023-05-09T11:05:56.426Z,44.30
2023-05-09T11:08:23.600Z,44.00
2023-05-09T11:10:50.891Z,44.50
2023-05-09T11:13:23.497Z,44.70
2023-05-09T11:16:11.909Z,44.20
2023-05-09T11:18:52.784Z,44.30
2023-05-09T11:21:20.360Z,44.50
2023-05-09T11:23:48.664Z,43.90
2023-05-09T11:26:16.553Z,43.50
2023-05-09T11:28:51.414Z,43.30
2023-05-09T11:31:19.143Z,43.50
2023-05-09T11:33:47.290Z,44.30
2023-05-09T11:36:20.229Z,43.70
2023-05-09T11:38:47.302Z,44.40
2023-05-09T11:41:14.251Z,44.20
2023-05-09T11:43:42.041Z,44.10
2023-05-09T11:46:08.966Z,44.40
2023-05-09T11:48:39.566Z,43.90
2023-05-09T11:51:06.591Z,43.80
2023-05-09T11:53:33.627Z,43.10
2023-05-09T11:56:04.632Z,43.90
2023-05-09T11:58:31.374Z,43.80
2023-05-09T12:00:59.401Z,43.80
2023-05-09T12:03:27.493Z,43.40
2023-05-09T12:05:54.688Z,43.90
2023-05-09T12:08:22.743Z,44.10
2023-05-09T12:10:49.802Z,43.90
2023-05-09T12:13:16.739Z,44.70
2023-05-09T12:15:43.986Z,44.40
2023-05-09T12:18:11.917Z,43.60
2023-05-09T12:20:42.754Z,44.50
2023-05-09T12:23:14.962Z,43.10
2023-05-09T12:25:50.669Z,42.90
2023-05-09T12:28:19.537Z,42.90
2023-05-09T12:30:46.444Z,43.80
2023-05-09T12:33:13.247Z,44.10
2023-05-09T12:35:40.563Z,43.80
2023-05-09T12:38:08.180Z,43.60
2023-05-09T12:40:36.009Z,43.50
2023-05-09T12:43:04.306Z,43.60
2023-05-09T12:45:32.809Z,43.30
2023-05-09T12:48:00.894Z,44.00
2023-05-09T12:50:37.806Z,43.90
2023-05-09T12:53:04.497Z,43.60
2023-05-09T12:55:32.685Z,43.50
2023-05-09T12:57:59.427Z,43.90
2023-05-09T13:00:26.294Z,42.80
2023-05-09T13:02:54.533Z,43.50
2023-05-09T13:05:22.350Z,42.70
2023-05-09T13:07:51.236Z,42.70
2023-05-09T13:10:29.058Z,43.50
2023-05-09T13:12:55.979Z,43.70
2023-05-09T13:15:23.224Z,42.80
2023-05-09T13:17:51.080Z,43.30
2023-05-09T13:20:18.904Z,43.80
2023-05-09T13:22:46.043Z,44.00
2023-05-09T13:25:12.939Z,43.30
2023-05-09T13:27:40.509Z,44.30
2023-05-09T13:30:08.464Z,43.90
2023-05-09T13:32:36.746Z,43.80
2023-05-09T13:35:07.365Z,43.50
2023-05-09T13:37:35.125Z,43.60
2023-05-09T13:40:03.143Z,44.10
2023-05-09T13:42:31.276Z,43.30
2023-05-09T13:44:57.822Z,44.10
2023-05-09T13:47:24.420Z,43.20
2023-05-09T13:49:52.098Z,43.00
2023-05-09T13:52:18.993Z,43.60
2023-05-09T13:54:45.805Z,43.30
2023-05-09T13:57:12.953Z,43.60
2023-05-09T13:59:41.595Z,43.30
2023-05-09T14:02:09.508Z,42.40
2023-05-09T14:04:36.486Z,42.60
2023-05-09T14:07:03.240Z,43.10
2023-05-09T14:09:29.872Z,43.40
2023-05-09T14:11:57.042Z,43.10
2023-05-09T14:14:24.278Z,42.80
2023-05-09T14:16:51.250Z,44.10
2023-05-09T14:19:18.030Z,43.00
2023-05-09T14:21:46.814Z,42.70
2023-05-09T14:24:16.173Z,43.70
2023-05-09T14:26:43.195Z,43.00
2023-05-09T14:29:09.916Z,43.40
2023-05-09T14:31:37.013Z,43.00
2023-05-09T14:34:05.225Z,43.10
2023-05-09T14:36:32.421Z,42.90
2023-05-09T14:38:59.030Z,42.90
2023-05-09T14:41:25.927Z,43.30
2023-05-09T14:43:52.530Z,44.30
2023-05-09T14:46:19.174Z,43.20
2023-05-09T14:48:45.911Z,43.10
2023-05-09T14:51:12.816Z,42.30
2023-05-09T14:53:41.636Z,42.10
2023-05-09T14:56:09.331Z,42.70
2023-05-09T14:58:35.911Z,42.00
2023-05-09T15:01:02.897Z,41.90
2023-05-09T15:03:29.723Z,42.00
2023-05-09T15:05:58.432Z,41.40
2023-05-09T15:08:25.453Z,41.00
2023-05-09T15:10:52.056Z,41.50
2023-05-09T15:13:18.709Z,42.30
2023-05-09T15:15:45.379Z,42.90
2023-05-09T15:18:13.347Z,44.90
2023-05-09T15:20:39.995Z,45.30
2023-05-09T15:23:07.585Z,43.80
2023-05-09T15:25:34.526Z,43.70
2023-05-09T15:28:01.105Z,42.70
2023-05-09T15:30:27.875Z,43.30
2023-05-09T15:32:54.432Z,43.10
2023-05-09T15:35:21.097Z,43.60
2023-05-09T15:37:47.659Z,44.20
2023-05-09T15:40:14.690Z,43.70
2023-05-09T15:42:41.553Z,44.70
2023-05-09T15:45:08.419Z,46.50
2023-05-09T15:47:35.081Z,45.40
2023-05-09T15:50:01.698Z,45.70
2023-05-09T15:52:28.277Z,43.60
2023-05-09T15:54:55.092Z,45.00
2023-05-09T15:57:21.790Z,44.60
2023-05-09T15:59:48.347Z,44.60
2023-05-09T16:02:15.143Z,44.70
2023-05-09T16:04:43.910Z,45.70
2023-05-09T16:07:10.840Z,46.80
2023-05-09T16:09:37.838Z,43.50
2023-05-09T16:12:04.673Z,44.20
2023-05-09T16:14:31.374Z,45.90
2023-05-09T16:16:57.998Z,45.80
2023-05-09T16:19:24.540Z,44.80
2023-05-09T16:21:51.195Z,45.60
2023-05-09T16:24:17.867Z,44.20
2023-05-09T16:26:44.446Z,44.50
2023-05-09T16:29:12.613Z,44.70
2023-05-09T16:31:39.230Z,44.90
2023-05-09T16:34:06.205Z,45.00
2023-05-09T16:36:33.608Z,44.80
2023-05-09T16:39:00.233Z,45.60
2023-05-09T16:41:27.105Z,45.10
2023-05-09T16:43:53.778Z,45.30
2023-05-09T16:46:20.431Z,45.80
2023-05-09T16:48:47.076Z,46.00
2023-05-09T16:51:13.659Z,45.90
2023-05-09T16:53:40.300Z,45.90
2023-05-09T16:56:07.953Z,45.60
2023-05-09T16:58:36.626Z,45.60
2023-05-09T17:01:03.692Z,44.90
2023-05-09T17:03:30.762Z,45.80
2023-05-09T17:05:57.351Z,45.90
2023-05-09T17:08:23.931Z,45.60
2023-05-09T17:10:50.761Z,45.50
2023-05-09T17:13:17.385Z,45.10
2023-05-09T17:15:44.326Z,45.30
2023-05-09T17:18:12.320Z,45.60
2023-05-09T17:20:40.546Z,46.30
2023-05-09T17:23:07.324Z,46.10
2023-05-09T17:25:33.868Z,46.40
2023-05-09T17:28:00.418Z,45.90
2023-05-09T17:30:27.107Z,46.40
2023-05-09T17:32:53.769Z,46.50
2023-05-09T17:35:22.408Z,46.00
2023-05-09T17:37:49.010Z,46.60
2023-05-09T17:40:15.798Z,46.60
2023-05-09T17:42:42.671Z,47.60
2023-05-09T17:45:10.046Z,46.90
2023-05-09T17:47:37.545Z,46.60
2023-05-09T17:50:04.622Z,46.10
2023-05-09T17:52:31.625Z,47.30
2023-05-09T17:54:58.224Z,47.40
2023-05-09T17:57:24.854Z,47.00
2023-05-09T17:59:51.731Z,46.70
2023-05-09T18:02:23.755Z,47.10
2023-05-09T18:04:50.958Z,47.00
2023-05-09T18:07:17.550Z,47.70
2023-05-09T18:09:44.118Z,47.70
2023-05-09T18:12:10.705Z,46.80
2023-05-09T18:14:38.714Z,49.60
2023-05-09T18:17:05.286Z,47.60
2023-05-09T18:19:31.941Z,49.10
2023-05-09T18:21:58.482Z,47.90
2023-05-09T18:24:25.274Z,47.90
2023-05-09T18:26:52.314Z,49.70
2023-05-09T18:29:19.503Z,48.20
2023-05-09T18:31:46.168Z,49.70
2023-05-09T18:34:13.093Z,49.80
2023-05-09T18:36:39.677Z,49.30
2023-05-09T18:39:06.292Z,50.40
2023-05-09T18:41:33.944Z,49.50
2023-05-09T18:44:00.499Z,47.40
2023-05-09T18:46:27.985Z,47.80
2023-05-09T18:48:54.809Z,47.70
2023-05-09T18:51:21.475Z,47.30
2023-05-09T18:53:48.419Z,47.00
2023-05-09T18:56:16.425Z,47.10
2023-05-09T18:58:42.973Z,46.80
2023-05-09T19:01:11.454Z,46.60
2023-05-09T19:03:43.658Z,46.50
2023-05-09T19:06:12.907Z,46.40
2023-05-09T19:08:40.496Z,46.50
2023-05-09T19:11:07.286Z,46.30
2023-05-09T19:13:37.082Z,46.80
2023-05-09T19:16:07.335Z,46.80
2023-05-09T19:18:34.965Z,47.10
2023-05-09T19:21:01.768Z,47.70
2023-05-09T19:23:28.423Z,47.60
2023-05-09T19:25:55.179Z,47.40
2023-05-09T19:28:22.936Z,48.00
2023-05-09T19:30:49.974Z,48.90
2023-05-09T19:33:16.695Z,48.40
2023-05-09T19:35:43.520Z,48.50
2023-05-09T19:38:11.921Z,48.90
2023-05-09T19:40:39.351Z,49.90
2023-05-09T19:43:05.989Z,49.90
2023-05-09T19:45:32.638Z,50.10
2023-05-09T19:47:59.454Z,50.00
2023-05-09T19:50:26.560Z,49.10
2023-05-09T19:52:53.171Z,49.40
2023-05-09T19:55:19.768Z,49.50
2023-05-09T19:57:47.306Z,49.80
2023-05-09T20:00:14.684Z,50.40
2023-05-09T20:02:41.672Z,50.40
2023-05-09T20:05:08.566Z,50.90
2023-05-09T20:07:35.165Z,50.50
2023-05-09T20:10:01.770Z,50.10
2023-05-09T20:12:30.236Z,50.20
2023-05-09T20:14:57.193Z,50.40
2023-05-09T20:17:23.873Z,49.70
2023-05-09T20:19:50.744Z,50.60
2023-05-09T20:22:17.379Z,50.90
2023-05-09T20:24:43.976Z,50.70
2023-05-09T20:27:10.641Z,50.70
2023-05-09T20:29:37.201Z,50.90
2023-05-09T20:32:03.865Z,51.20
2023-05-09T20:34:30.573Z,49.90
2023-05-09T20:36:57.160Z,50.60
2023-05-09T20:39:24.672Z,50.70
2023-05-09T20:41:52.116Z,51.30
2023-05-09T20:44:19.069Z,49.60
2023-05-09T20:46:45.968Z,51.20
2023-05-09T20:49:13.161Z,50.80
2023-05-09T20:51:39.921Z,51.20
2023-05-09T20:54:06.687Z,50.50
2023-05-09T20:56:35.254Z,51.10
2023-05-09T20:59:03.983Z,51.10
2023-05-09T21:01:37.351Z,50.60
2023-05-09T21:04:05.984Z,50.20
2023-05-09T21:06:33.078Z,50.70
2023-05-09T21:08:59.709Z,51.40
2023-05-09T21:11:26.450Z,50.90
2023-05-09T21:13:53.023Z,50.80
2023-05-09T21:16:19.577Z,50.60
2023-05-09T21:18:46.326Z,51.30
2023-05-09T21:21:13.192Z,51.40
2023-05-09T21:23:39.938Z,51.50
2023-05-09T21:26:06.819Z,51.60
2023-05-09T21:28:33.630Z,51.50
2023-05-09T21:31:09.674Z,51.50
2023-05-09T21:33:40.522Z,51.10
2023-05-09T21:36:07.691Z,50.50
2023-05-09T21:38:34.363Z,50.10
2023-05-09T21:41:00.983Z,49.70
2023-05-09T21:43:28.691Z,50.60
2023-05-09T21:45:55.695Z,49.30
2023-05-09T21:48:22.353Z,49.70
2023-05-09T21:50:56.561Z,49.90
2023-05-09T21:53:25.680Z,49.70
2023-05-09T21:55:52.291Z,49.50
2023-05-09T21:58:21.476Z,50.90
2023-05-09T22:00:48.103Z,49.90
2023-05-09T22:03:14.781Z,50.10
2023-05-09T22:05:41.522Z,50.10
2023-05-09T22:08:08.206Z,50.10
2023-05-09T22:10:34.762Z,50.70
2023-05-09T22:13:01.490Z,50.70
2023-05-09T22:15:28.315Z,50.30
2023-05-09T22:17:54.929Z,51.00
2023-05-09T22:20:21.608Z,51.00
2023-05-09T22:22:48.155Z,50.90
2023-05-09T22:25:14.769Z,51.50
2023-05-09T22:27:41.340Z,51.30
2023-05-09T22:30:09.246Z,51.50
2023-05-09T22:32:35.940Z,51.60
2023-05-09T22:35:02.764Z,50.80
2023-05-09T22:37:29.307Z,51.60
2023-05-09T22:39:55.917Z,51.50
2023-05-09T22:42:22.541Z,51.10
2023-05-09T22:44:49.829Z,51.70
2023-05-09T22:47:16.501Z,51.80
2023-05-09T22:49:44.576Z,51.50
2023-05-09T22:52:12.564Z,51.70
2023-05-09T22:54:39.183Z,51.70
2023-05-09T22:57:05.801Z,51.30
2023-05-09T22:59:32.345Z,51.60
2023-05-09T23:01:59.034Z,51.70
2023-05-09T23:04:25.672Z,51.50
2023-05-09T23:06:52.301Z,51.60
2023-05-09T23:09:18.845Z,52.00
2023-05-09T23:11:45.478Z,51.10
2023-05-09T23:14:12.246Z,50.90
2023-05-09T23:16:38.814Z,51.40
2023-05-09T23:19:05.395Z,51.10
2023-05-09T23:21:32.618Z,51.40
2023-05-09T23:23:59.192Z,51.00
2023-05-09T23:26:25.804Z,51.00
2023-05-09T23:28:55.454Z,51.70
2023-05-09T23:31:22.175Z,51.60
2023-05-09T23:33:48.868Z,51.50
2023-05-09T23:36:15.471Z,51.70
2023-05-09T23:38:42.035Z,51.60
2023-05-09T23:41:08.681Z,52.20
2023-05-09T23:43:35.270Z,51.80
2023-05-09T23:46:01.920Z,51.40
2023-05-09T23:48:28.691Z,51.40
2023-05-09T23:50:55.252Z,51.40
2023-05-09T23:53:22.055Z,51.40
2023-05-09T23:55:48.658Z,51.10
2023-05-09T23:58:15.387Z,51.10
